Time;durP1;ratioP1;P1;durP2;ratioP2;P2;SDS_P1;SDS_P2;PMS_P1;PMS_P2;Temp;Humidity;BMP_temperature;BMP_pressure;BME280_temperature;BME280_humidity;BME280_pressure;Samples;Min_cycle;Max_cycle;Signal;HPM_P1;HPM_P2
2024/01/31 00:01:54;;;;;;;;;;;8.90;99.90;;;;;;4988967;28;19945;-71
2024/01/31 00:04:19;;;;;;;;;;;8.90;99.90;;;;;;4986519;28;19976;-71
2024/01/31 00:06:50;;;;;;;;;;;8.80;99.90;;;;;;4985525;28;19918;-71
2024/01/31 00:09:16;;;;;;;;;;;8.80;99.90;;;;;;4984511;28;20009;-71
2024/01/31 00:11:42;;;;;;;;;;;8.80;99.90;;;;;;5002181;28;20004;-71
2024/01/31 00:14:08;;;;;;;;;;;8.80;99.90;;;;;;4986405;28;19922;-71
2024/01/31 00:16:36;;;;;;;;;;;8.80;99.90;;;;;;4985410;28;19917;-71
2024/01/31 00:19:02;;;;;;;;;;;8.70;99.90;;;;;;4984230;28;19929;-71
2024/01/31 00:21:28;;;;;;;;;;;8.70;99.90;;;;;;4983236;28;19988;-72
2024/01/31 00:23:54;;;;;;;;;;;8.70;99.90;;;;;;4989242;28;19921;-71
2024/01/31 00:26:19;;;;;;;;;;;8.60;99.90;;;;;;4989087;28;19925;-71
2024/01/31 00:28:44;;;;;;;;;;;8.60;99.90;;;;;;5004827;28;20311;-71
2024/01/31 00:31:12;;;;;;;;;;;8.60;99.90;;;;;;4989475;28;19921;-71
2024/01/31 00:33:39;;;;;;;;;;;8.60;99.90;;;;;;4985613;28;19976;-71
2024/01/31 00:36:07;;;;;;;;;;;8.50;99.90;;;;;;4989910;28;19921;-71
2024/01/31 00:38:32;;;;;;;;;;;8.50;99.90;;;;;;4992512;28;19918;-71
2024/01/31 00:40:58;;;;;;;;;;;8.50;99.90;;;;;;4989981;28;19922;-71
2024/01/31 00:43:23;;;;;;;;;;;8.50;99.90;;;;;;4992182;28;19918;-71
2024/01/31 00:45:48;;;;;;;;;;;8.50;99.90;;;;;;4999810;23;19936;-71
2024/01/31 00:48:15;;;;;;;;;;;8.50;99.90;;;;;;5007508;28;20459;-71
2024/01/31 00:50:43;;;;;;;;;;;8.40;99.90;;;;;;5009946;28;20039;-71
2024/01/31 00:53:11;;;;;;;;;;;8.40;99.90;;;;;;5008501;28;19917;-71
2024/01/31 00:55:36;;;;;;;;;;;8.40;99.90;;;;;;5008428;28;20016;-71
2024/01/31 00:58:02;;;;;;;;;;;8.40;99.90;;;;;;5004618;28;20016;-71
2024/01/31 01:00:27;;;;;;;;;;;8.40;99.90;;;;;;5008072;28;20318;-71
2024/01/31 01:02:53;;;;;;;;;;;8.40;99.90;;;;;;5006138;28;19975;-71
2024/01/31 01:05:20;;;;;;;;;;;8.40;99.90;;;;;;5006783;28;19952;-71
2024/01/31 01:07:45;;;;;;;;;;;8.50;99.90;;;;;;5006797;28;19922;-71
2024/01/31 01:10:16;;;;;;;;;;;8.50;99.90;;;;;;5007876;28;19975;-71
2024/01/31 01:12:42;;;;;;;;;;;8.50;99.90;;;;;;5009921;28;19971;-71
2024/01/31 01:15:10;;;;;;;;;;;8.40;99.90;;;;;;5012948;28;19965;-71
2024/01/31 01:17:38;;;;;;;;;;;8.50;99.90;;;;;;5010293;28;19997;-71
2024/01/31 01:20:04;;;;;;;;;;;8.40;99.90;;;;;;5008171;28;19922;-71
2024/01/31 01:22:30;;;;;;;;;;;8.40;99.90;;;;;;5008284;28;19918;-71
2024/01/31 01:24:57;;;;;;;;;;;8.40;99.90;;;;;;5007351;28;19922;-71
2024/01/31 01:27:25;;;;;;;;;;;8.30;99.90;;;;;;5004484;28;19972;-71
2024/01/31 01:29:53;;;;;;;;;;;8.30;99.90;;;;;;5009489;28;19996;-71
2024/01/31 01:32:21;;;;;;;;;;;8.30;99.90;;;;;;5006710;28;19925;-71
2024/01/31 01:34:46;;;;;;;;;;;8.30;99.90;;;;;;5007390;28;19922;-71
2024/01/31 01:37:12;;;;;;;;;;;8.30;99.90;;;;;;5007636;28;19940;-71
2024/01/31 01:39:39;;;;;;;;;;;8.30;99.90;;;;;;5008750;28;19919;-71
2024/01/31 01:42:04;;;;;;;;;;;8.30;99.90;;;;;;5006522;28;19924;-71
2024/01/31 01:44:32;;;;;;;;;;;8.30;99.90;;;;;;5008258;28;19929;-71
2024/01/31 01:47:00;;;;;;;;;;;8.20;99.90;;;;;;5009082;28;19929;-71
2024/01/31 01:49:26;;;;;;;;;;;8.20;99.90;;;;;;5011097;28;20364;-71
2024/01/31 01:51:52;;;;;;;;;;;8.30;99.90;;;;;;5026510;28;19922;-71
2024/01/31 01:54:18;;;;;;;;;;;8.20;99.90;;;;;;5007105;28;20308;-71
2024/01/31 01:56:46;;;;;;;;;;;8.10;99.90;;;;;;5010095;28;20012;-71
2024/01/31 01:59:12;;;;;;;;;;;8.10;99.90;;;;;;5021895;28;19925;-71
2024/01/31 02:01:41;;;;;;;;;;;8.10;99.90;;;;;;5005374;28;19925;-71
2024/01/31 02:04:07;;;;;;;;;;;8.10;99.90;;;;;;5003595;28;19951;-71
2024/01/31 02:06:33;;;;;;;;;;;8.00;99.90;;;;;;5014248;28;20383;-71
2024/01/31 02:08:59;;;;;;;;;;;8.00;99.90;;;;;;5011529;28;19952;-71
2024/01/31 02:11:24;;;;;;;;;;;7.90;99.90;;;;;;5006494;28;20169;-71
2024/01/31 02:13:50;;;;;;;;;;;7.90;99.90;;;;;;5009259;28;19944;-71
2024/01/31 02:16:15;;;;;;;;;;;7.90;99.90;;;;;;5005546;28;19967;-71
2024/01/31 02:18:41;;;;;;;;;;;7.80;99.90;;;;;;5006647;28;19921;-71
2024/01/31 02:21:08;;;;;;;;;;;7.70;99.90;;;;;;5010530;28;20316;-71
2024/01/31 02:23:34;;;;;;;;;;;7.70;99.90;;;;;;5007519;28;20067;-71
2024/01/31 02:25:59;;;;;;;;;;;7.60;99.90;;;;;;5010067;28;19932;-70
2024/01/31 02:28:25;;;;;;;;;;;7.60;99.90;;;;;;5006484;28;19932;-71
2024/01/31 02:30:51;;;;;;;;;;;7.60;99.90;;;;;;5002761;28;19944;-71
2024/01/31 02:33:16;;;;;;;;;;;7.70;99.90;;;;;;5008386;28;19917;-71
2024/01/31 02:35:42;;;;;;;;;;;7.60;99.90;;;;;;5004386;28;19918;-71
2024/01/31 02:38:07;;;;;;;;;;;7.50;99.90;;;;;;5002200;28;19921;-71
2024/01/31 02:40:33;;;;;;;;;;;7.60;99.90;;;;;;5005485;28;20013;-71
2024/01/31 02:42:59;;;;;;;;;;;7.60;99.90;;;;;;5004702;28;20290;-71
2024/01/31 02:45:25;;;;;;;;;;;7.50;99.90;;;;;;5007519;28;20563;-71
2024/01/31 02:47:50;;;;;;;;;;;7.60;99.90;;;;;;5003950;28;20325;-71
2024/01/31 02:50:16;;;;;;;;;;;7.50;99.90;;;;;;5008603;28;19925;-71
2024/01/31 02:52:44;;;;;;;;;;;7.50;99.90;;;;;;5006699;28;20000;-71
2024/01/31 02:55:09;;;;;;;;;;;7.50;99.90;;;;;;5007272;28;19967;-71
2024/01/31 02:57:35;;;;;;;;;;;7.50;99.90;;;;;;5006875;28;19918;-71
2024/01/31 03:00:01;;;;;;;;;;;7.40;99.90;;;;;;5004147;28;19917;-71
2024/01/31 03:02:27;;;;;;;;;;;7.30;99.90;;;;;;5020475;28;20151;-71
2024/01/31 03:04:52;;;;;;;;;;;7.30;99.90;;;;;;5005540;28;20443;-71
2024/01/31 03:07:18;;;;;;;;;;;7.30;99.90;;;;;;5005871;28;19928;-71
2024/01/31 03:09:46;;;;;;;;;;;7.40;99.90;;;;;;5006156;28;19948;-71
2024/01/31 03:12:14;;;;;;;;;;;7.30;99.90;;;;;;5006305;28;19925;-71
2024/01/31 03:14:39;;;;;;;;;;;7.30;99.90;;;;;;5006304;28;19996;-71
2024/01/31 03:17:05;;;;;;;;;;;7.20;99.90;;;;;;5004694;28;20324;-71
2024/01/31 03:19:32;;;;;;;;;;;7.20;99.90;;;;;;5021715;28;19917;-71
2024/01/31 03:21:57;;;;;;;;;;;7.20;99.90;;;;;;5006592;28;20995;-71
2024/01/31 03:24:25;;;;;;;;;;;7.20;99.90;;;;;;5010437;28;20242;-71
2024/01/31 03:26:50;;;;;;;;;;;7.10;99.90;;;;;;4999416;28;19918;-70
2024/01/31 03:29:16;;;;;;;;;;;7.10;99.90;;;;;;5017872;23;19934;-92
2024/01/31 03:31:42;;;;;;;;;;;7.10;99.90;;;;;;5003830;28;19917;-92
2024/01/31 03:34:07;;;;;;;;;;;7.20;99.90;;;;;;5010107;28;19918;-92
2024/01/31 03:36:33;;;;;;;;;;;7.20;99.90;;;;;;4993806;28;19918;-92
2024/01/31 03:38:59;;;;;;;;;;;7.20;99.90;;;;;;4990926;28;19960;-91
2024/01/31 03:41:26;;;;;;;;;;;7.20;99.90;;;;;;4991904;28;20020;-92
2024/01/31 03:43:51;;;;;;;;;;;7.10;99.90;;;;;;4988819;28;20009;-91
2024/01/31 03:46:17;;;;;;;;;;;7.10;99.90;;;;;;4999079;28;19968;-92
2024/01/31 03:48:44;;;;;;;;;;;7.20;99.90;;;;;;4990726;28;20379;-93
2024/01/31 03:51:19;;;;;;;;;;;7.10;99.90;;;;;;4983560;28;20471;-93
2024/01/31 03:53:45;;;;;;;;;;;7.10;99.90;;;;;;5001463;28;20385;-92
2024/01/31 03:56:11;;;;;;;;;;;7.10;99.90;;;;;;5002226;28;19921;-92
2024/01/31 03:58:36;;;;;;;;;;;7.10;99.90;;;;;;5010396;28;19928;-92
2024/01/31 04:01:04;;;;;;;;;;;7.20;99.90;;;;;;5012124;28;19913;-93
2024/01/31 04:03:30;;;;;;;;;;;7.10;99.90;;;;;;5034306;28;19909;-92
2024/01/31 04:05:55;;;;;;;;;;;7.10;99.90;;;;;;5016040;28;20472;-92
2024/01/31 04:08:23;;;;;;;;;;;7.00;99.90;;;;;;5012485;28;20389;-92
2024/01/31 04:10:49;;;;;;;;;;;7.00;99.90;;;;;;4996145;28;19918;-93
2024/01/31 04:13:14;;;;;;;;;;;7.00;99.90;;;;;;5001027;28;19925;-92
2024/01/31 04:15:40;;;;;;;;;;;7.00;99.90;;;;;;5010270;28;19917;-92
2024/01/31 04:18:08;;;;;;;;;;;7.00;99.90;;;;;;5017098;28;19917;-92
2024/01/31 04:20:35;;;;;;;;;;;7.00;99.90;;;;;;5020975;28;19923;-93
2024/01/31 04:23:00;;;;;;;;;;;6.80;99.90;;;;;;5016973;28;19925;-94
2024/01/31 04:25:26;;;;;;;;;;;7.00;99.90;;;;;;5009729;28;19939;-92
2024/01/31 04:27:52;;;;;;;;;;;6.90;99.90;;;;;;5025187;28;19921;-92
2024/01/31 04:30:18;;;;;;;;;;;6.90;99.90;;;;;;5010671;28;19946;-93
2024/01/31 04:32:44;;;;;;;;;;;6.90;99.90;;;;;;5007730;28;19910;-92
2024/01/31 04:35:10;;;;;;;;;;;6.80;99.90;;;;;;5027799;28;19924;-93
2024/01/31 04:37:35;;;;;;;;;;;6.80;99.90;;;;;;5023395;28;19925;-92
2024/01/31 04:40:01;;;;;;;;;;;6.70;99.90;;;;;;5019603;28;19917;-92
2024/01/31 04:42:26;;;;;;;;;;;6.70;99.90;;;;;;4984182;28;20412;-93
2024/01/31 04:44:52;;;;;;;;;;;6.70;99.90;;;;;;4992948;28;19922;-92
2024/01/31 04:47:22;;;;;;;;;;;6.70;99.90;;;;;;5012551;28;19949;-92
2024/01/31 04:49:47;;;;;;;;;;;6.70;99.90;;;;;;5017294;28;19917;-92
2024/01/31 04:52:13;;;;;;;;;;;6.70;99.90;;;;;;5017808;28;19921;-92
2024/01/31 04:54:39;;;;;;;;;;;6.60;99.90;;;;;;5018960;28;19992;-91
2024/01/31 04:57:05;;;;;;;;;;;6.70;99.90;;;;;;5017636;28;19925;-92
2024/01/31 04:59:31;;;;;;;;;;;6.60;99.90;;;;;;5021064;28;20012;-92
2024/01/31 05:01:57;;;;;;;;;;;6.60;99.90;;;;;;5007186;28;20008;-93
2024/01/31 05:04:22;;;;;;;;;;;6.80;99.90;;;;;;5035089;28;19940;-93
2024/01/31 05:06:57;;;;;;;;;;;6.70;99.90;;;;;;5005386;28;19914;-93
2024/01/31 05:09:23;;;;;;;;;;;6.60;99.90;;;;;;4994729;28;19949;-92
2024/01/31 05:11:48;;;;;;;;;;;6.60;99.90;;;;;;5012607;28;19924;-92
2024/01/31 05:14:14;;;;;;;;;;;6.80;99.90;;;;;;5002173;28;19925;-92
2024/01/31 05:16:40;;;;;;;;;;;6.60;99.90;;;;;;5002072;28;20396;-92
2024/01/31 05:19:08;;;;;;;;;;;6.70;99.90;;;;;;5009051;28;19945;-93
2024/01/31 05:21:34;;;;;;;;;;;6.50;99.90;;;;;;5016108;28;19921;-91
2024/01/31 05:23:59;;;;;;;;;;;6.50;99.90;;;;;;5015148;28;19917;-92
2024/01/31 05:26:25;;;;;;;;;;;6.60;99.90;;;;;;5014554;28;20021;-92
2024/01/31 05:28:50;;;;;;;;;;;6.60;99.90;;;;;;5011518;28;19925;-92
2024/01/31 05:31:18;;;;;;;;;;;6.60;99.90;;;;;;5008915;28;20005;-92
2024/01/31 05:33:44;;;;;;;;;;;6.50;99.90;;;;;;5028075;28;19913;-92
2024/01/31 05:36:09;;;;;;;;;;;6.50;99.90;;;;;;5014759;28;20536;-92
2024/01/31 05:38:35;;;;;;;;;;;6.50;99.90;;;;;;5003604;28;19933;-93
2024/01/31 05:41:00;;;;;;;;;;;6.50;99.90;;;;;;5002970;28;19917;-92
2024/01/31 05:43:26;;;;;;;;;;;6.50;99.90;;;;;;5008745;28;19934;-93
2024/01/31 05:45:51;;;;;;;;;;;6.50;99.90;;;;;;4984952;28;19946;-92
2024/01/31 05:48:17;;;;;;;;;;;6.50;99.90;;;;;;4975370;28;19918;-92
2024/01/31 05:50:43;;;;;;;;;;;6.50;99.90;;;;;;5001945;28;19914;-92
2024/01/31 05:53:08;;;;;;;;;;;6.50;99.90;;;;;;5015015;28;19940;-94
2024/01/31 05:55:34;;;;;;;;;;;6.50;99.90;;;;;;5016203;28;20380;-90
2024/01/31 05:57:59;;;;;;;;;;;6.50;99.90;;;;;;5015462;28;19918;-92
2024/01/31 06:00:25;;;;;;;;;;;6.50;99.90;;;;;;5013401;28;20373;-92
2024/01/31 06:02:50;;;;;;;;;;;6.50;99.90;;;;;;5015313;28;19914;-93
2024/01/31 06:05:16;;;;;;;;;;;6.50;99.90;;;;;;5011886;28;19926;-92
2024/01/31 06:07:44;;;;;;;;;;;6.50;99.90;;;;;;5000667;28;19925;-93
2024/01/31 06:10:10;;;;;;;;;;;6.50;99.90;;;;;;4993552;28;19953;-92
2024/01/31 06:12:35;;;;;;;;;;;6.40;99.90;;;;;;5014857;28;19913;-93
2024/01/31 06:15:02;;;;;;;;;;;6.40;99.90;;;;;;5013642;28;19960;-93
2024/01/31 06:17:28;;;;;;;;;;;6.40;99.90;;;;;;5017686;28;20275;-92
2024/01/31 06:19:54;;;;;;;;;;;6.40;99.90;;;;;;5004485;28;20019;-92
2024/01/31 06:22:28;;;;;;;;;;;6.40;99.90;;;;;;4996417;28;19947;-93
2024/01/31 06:24:54;;;;;;;;;;;6.40;99.90;;;;;;5019550;28;19924;-94
2024/01/31 06:27:20;;;;;;;;;;;6.40;99.90;;;;;;5007334;28;19974;-96
2024/01/31 06:29:45;;;;;;;;;;;6.40;99.90;;;;;;4995071;28;20186;-93
2024/01/31 06:32:11;;;;;;;;;;;6.30;99.90;;;;;;4993218;28;19945;-93
2024/01/31 06:34:36;;;;;;;;;;;6.30;99.90;;;;;;4994395;28;19972;-92
2024/01/31 06:37:02;;;;;;;;;;;6.40;99.90;;;;;;4984762;28;19918;-93
2024/01/31 06:39:28;;;;;;;;;;;6.40;99.90;;;;;;4986181;28;19957;-92
2024/01/31 06:41:53;;;;;;;;;;;6.50;99.90;;;;;;5002337;28;20285;-93
2024/01/31 06:44:19;;;;;;;;;;;6.40;99.90;;;;;;5007071;28;19929;-92
2024/01/31 06:46:47;;;;;;;;;;;6.50;99.90;;;;;;5025907;28;19952;-92
2024/01/31 06:49:13;;;;;;;;;;;6.40;99.90;;;;;;5015412;28;19917;-92
2024/01/31 06:51:38;;;;;;;;;;;6.40;99.90;;;;;;5013878;28;19909;-93
2024/01/31 06:54:04;;;;;;;;;;;6.50;99.90;;;;;;5014444;28;19917;-92
2024/01/31 06:56:30;;;;;;;;;;;6.40;99.90;;;;;;5007571;28;19980;-93
2024/01/31 06:58:58;;;;;;;;;;;6.50;99.90;;;;;;5001077;28;19918;-92
2024/01/31 07:02:01;;;;;;;;;;;6.40;99.90;;;;;;4996294;28;19917;-93
2024/01/31 07:04:27;;;;;;;;;;;6.40;99.90;;;;;;4999059;28;19926;-91
2024/01/31 07:06:53;;;;;;;;;;;6.30;99.90;;;;;;4997949;28;19914;-93
2024/01/31 07:09:19;;;;;;;;;;;6.40;99.90;;;;;;5014754;28;21015;-93
2024/01/31 07:11:47;;;;;;;;;;;6.40;99.90;;;;;;5015418;28;19973;-92
2024/01/31 07:14:14;;;;;;;;;;;6.40;99.90;;;;;;5013074;28;19924;-92
2024/01/31 07:16:39;;;;;;;;;;;6.50;99.90;;;;;;5012353;28;19929;-93
2024/01/31 07:19:05;;;;;;;;;;;6.40;99.90;;;;;;5013794;28;20288;-93
2024/01/31 07:21:30;;;;;;;;;;;6.30;99.90;;;;;;4997571;28;19910;-92
2024/01/31 07:23:56;;;;;;;;;;;6.40;99.90;;;;;;4993810;28;20300;-93
2024/01/31 07:26:28;;;;;;;;;;;6.40;99.90;;;;;;5010041;28;20385;-92
2024/01/31 07:28:54;;;;;;;;;;;6.40;99.90;;;;;;5017305;28;19924;-94
2024/01/31 07:31:21;;;;;;;;;;;6.30;99.90;;;;;;5020976;28;19929;-93
2024/01/31 07:33:57;;;;;;;;;;;6.40;99.90;;;;;;4988336;28;19918;-93
2024/01/31 07:36:32;;;;;;;;;;;6.30;99.90;;;;;;4993720;28;19938;-93
2024/01/31 07:39:01;;;;;;;;;;;6.40;99.90;;;;;;5008446;28;20011;-93
2024/01/31 07:44:25;;;;;;;;;;;6.40;99.90;;;;;;5019933;28;19971;-93
2024/01/31 07:46:50;;;;;;;;;;;6.30;99.90;;;;;;5012288;28;20052;-93
2024/01/31 07:49:16;;;;;;;;;;;6.30;99.90;;;;;;5013017;28;19957;-95
2024/01/31 07:51:45;;;;;;;;;;;6.50;99.90;;;;;;5015437;28;20586;-93
2024/01/31 07:54:11;;;;;;;;;;;6.30;99.90;;;;;;5016941;28;19917;-95
2024/01/31 07:56:37;;;;;;;;;;;6.40;99.90;;;;;;5012680;28;19926;-94
2024/01/31 07:59:03;;;;;;;;;;;6.40;99.90;;;;;;5007081;28;20005;-92
2024/01/31 08:01:28;;;;;;;;;;;6.40;99.90;;;;;;5011683;28;19968;-92
2024/01/31 08:03:54;;;;;;;;;;;6.40;99.90;;;;;;4996846;28;19910;-93
2024/01/31 08:06:20;;;;;;;;;;;6.50;99.90;;;;;;4998566;28;19945;-91
2024/01/31 08:08:45;;;;;;;;;;;6.50;99.90;;;;;;4997941;28;19991;-92
2024/01/31 08:11:11;;;;;;;;;;;6.60;99.90;;;;;;5000451;28;20392;-91
2024/01/31 08:13:40;;;;;;;;;;;6.50;99.90;;;;;;5025134;28;19929;-92
2024/01/31 08:16:06;;;;;;;;;;;6.50;99.90;;;;;;4999777;28;19959;-94
2024/01/31 08:18:31;;;;;;;;;;;6.50;99.90;;;;;;5008570;28;19992;-92
2024/01/31 08:20:57;;;;;;;;;;;6.50;99.90;;;;;;4975544;28;19914;-93
2024/01/31 08:23:23;;;;;;;;;;;6.50;99.90;;;;;;4988996;28;20413;-94
2024/01/31 08:25:49;;;;;;;;;;;6.50;99.90;;;;;;4992543;28;19930;-92
2024/01/31 08:28:16;;;;;;;;;;;6.60;99.90;;;;;;4990143;28;19917;-92
2024/01/31 08:30:42;;;;;;;;;;;6.50;99.90;;;;;;4997752;28;19918;-92
2024/01/31 08:33:07;;;;;;;;;;;6.60;99.90;;;;;;5010814;28;20395;-93
2024/01/31 08:35:36;;;;;;;;;;;6.60;99.90;;;;;;5009352;28;19922;-93
2024/01/31 08:38:02;;;;;;;;;;;6.60;99.90;;;;;;5008418;28;19928;-92
2024/01/31 08:40:27;;;;;;;;;;;6.50;99.90;;;;;;5016554;28;19917;-92
2024/01/31 08:42:58;;;;;;;;;;;6.60;99.90;;;;;;5009323;28;19910;-92
2024/01/31 08:45:24;;;;;;;;;;;6.50;99.90;;;;;;5025411;28;20411;-92
2024/01/31 08:47:49;;;;;;;;;;;6.60;99.90;;;;;;5015367;28;19921;-93
2024/01/31 08:50:15;;;;;;;;;;;6.50;99.90;;;;;;4998712;28;20327;-92
2024/01/31 08:52:40;;;;;;;;;;;6.50;99.90;;;;;;5009493;28;20394;-92
2024/01/31 08:55:06;;;;;;;;;;;6.50;99.90;;;;;;5017192;28;19925;-92
2024/01/31 08:57:34;;;;;;;;;;;6.50;99.90;;;;;;5014516;28;19912;-93
2024/01/31 09:00:04;;;;;;;;;;;6.50;99.90;;;;;;5016334;28;21821;-91
2024/01/31 09:02:29;;;;;;;;;;;6.50;99.90;;;;;;5013075;28;20008;-92
2024/01/31 09:04:56;;;;;;;;;;;6.60;99.90;;;;;;5014512;28;19985;-92
2024/01/31 09:07:25;;;;;;;;;;;6.60;99.90;;;;;;5014008;28;19913;-92
2024/01/31 09:09:51;;;;;;;;;;;6.60;99.90;;;;;;5014132;28;19913;-91
2024/01/31 09:12:16;;;;;;;;;;;6.70;99.90;;;;;;5015401;28;20400;-93
2024/01/31 09:14:42;;;;;;;;;;;6.70;99.90;;;;;;5025359;28;20008;-92
2024/01/31 09:17:07;;;;;;;;;;;6.60;99.90;;;;;;5014806;28;19956;-93
2024/01/31 09:19:33;;;;;;;;;;;6.70;99.90;;;;;;5010851;28;19924;-93
2024/01/31 09:21:58;;;;;;;;;;;6.60;99.90;;;;;;5024508;28;20312;-91
2024/01/31 09:24:24;;;;;;;;;;;6.60;99.90;;;;;;5016165;28;19960;-90
2024/01/31 09:26:50;;;;;;;;;;;6.60;99.90;;;;;;5014206;28;20004;-90
2024/01/31 09:29:25;;;;;;;;;;;6.60;99.90;;;;;;5013560;28;19963;-93
2024/01/31 09:31:50;;;;;;;;;;;6.60;99.90;;;;;;5011755;28;19929;-92
2024/01/31 09:34:16;;;;;;;;;;;6.60;99.90;;;;;;5012568;28;20007;-92
2024/01/31 09:36:46;;;;;;;;;;;6.50;99.90;;;;;;5012655;28;19914;-92
2024/01/31 09:39:12;;;;;;;;;;;6.70;99.90;;;;;;5026610;28;19928;-91
2024/01/31 09:41:37;;;;;;;;;;;6.60;99.90;;;;;;5014873;28;20020;-92
2024/01/31 09:44:03;;;;;;;;;;;6.60;99.90;;;;;;4998606;28;20445;-92
2024/01/31 09:46:30;;;;;;;;;;;6.50;99.90;;;;;;5012023;28;20402;-93
2024/01/31 09:48:55;;;;;;;;;;;6.50;99.90;;;;;;5014201;28;19944;-92
2024/01/31 09:51:23;;;;;;;;;;;6.70;99.90;;;;;;5015951;28;20016;-92
2024/01/31 09:53:51;;;;;;;;;;;6.50;99.90;;;;;;5008979;28;19944;-92
2024/01/31 09:56:19;;;;;;;;;;;6.50;99.90;;;;;;5013453;28;20016;-90
2024/01/31 09:58:45;;;;;;;;;;;6.50;99.90;;;;;;5010228;28;20004;-91
2024/01/31 10:01:21;;;;;;;;;;;6.60;99.90;;;;;;5013885;28;19963;-93
2024/01/31 10:03:47;;;;;;;;;;;6.50;99.90;;;;;;5014262;28;19917;-91
2024/01/31 10:06:12;;;;;;;;;;;6.50;99.90;;;;;;5009588;28;19918;-90
2024/01/31 10:08:38;;;;;;;;;;;6.50;99.90;;;;;;5011627;28;20384;-92
2024/01/31 10:11:05;;;;;;;;;;;6.60;99.90;;;;;;5010088;28;19917;-90
2024/01/31 10:13:32;;;;;;;;;;;6.60;99.90;;;;;;5013543;28;19918;-91
2024/01/31 10:15:58;;;;;;;;;;;6.60;99.90;;;;;;4991459;28;19933;-91
2024/01/31 10:18:27;;;;;;;;;;;6.70;99.90;;;;;;5011715;28;19917;-92
2024/01/31 10:20:53;;;;;;;;;;;6.70;99.90;;;;;;5011091;28;20385;-91
2024/01/31 10:23:19;;;;;;;;;;;6.70;99.90;;;;;;5011342;28;19964;-91
2024/01/31 10:25:44;;;;;;;;;;;6.70;99.90;;;;;;5014274;28;19929;-91
2024/01/31 10:28:10;;;;;;;;;;;6.70;99.90;;;;;;5016757;28;20004;-92
2024/01/31 10:30:40;;;;;;;;;;;6.70;99.90;;;;;;5000987;28;19924;-92
2024/01/31 10:33:07;;;;;;;;;;;6.70;99.90;;;;;;5009431;28;19921;-91
2024/01/31 10:35:37;;;;;;;;;;;6.80;99.90;;;;;;5016741;28;20017;-91
2024/01/31 10:38:05;;;;;;;;;;;6.80;99.90;;;;;;5013402;28;19989;-92
2024/01/31 10:40:33;;;;;;;;;;;6.80;99.90;;;;;;5012124;28;19913;-91
2024/01/31 10:42:58;;;;;;;;;;;6.80;99.90;;;;;;5001204;28;19914;-91
2024/01/31 10:45:24;;;;;;;;;;;6.70;99.90;;;;;;5016061;28;19980;-93
2024/01/31 10:47:50;;;;;;;;;;;6.60;99.90;;;;;;5001654;28;19917;-91
2024/01/31 10:50:18;;;;;;;;;;;6.80;99.90;;;;;;5012211;28;19917;-90
2024/01/31 10:52:45;;;;;;;;;;;6.70;99.90;;;;;;5018304;28;19967;-90
2024/01/31 10:55:11;;;;;;;;;;;6.70;99.90;;;;;;5021244;28;19918;-92
2024/01/31 10:57:38;;;;;;;;;;;6.70;99.90;;;;;;5020877;28;19931;-91
2024/01/31 11:00:08;;;;;;;;;;;6.80;99.90;;;;;;5013382;28;20001;-90
2024/01/31 11:02:34;;;;;;;;;;;6.80;99.90;;;;;;5007940;28;20068;-90
2024/01/31 11:05:06;;;;;;;;;;;6.90;99.90;;;;;;5003466;28;19914;-94
2024/01/31 11:07:33;;;;;;;;;;;6.80;99.90;;;;;;5012327;28;19982;-93
2024/01/31 11:09:59;;;;;;;;;;;6.80;99.90;;;;;;5019812;28;19918;-93
2024/01/31 11:12:26;;;;;;;;;;;6.80;99.90;;;;;;5004010;28;19936;-91
2024/01/31 11:14:52;;;;;;;;;;;6.80;99.90;;;;;;5008366;28;19996;-91
2024/01/31 11:17:19;;;;;;;;;;;6.90;99.90;;;;;;5009207;28;19925;-92
2024/01/31 11:19:52;;;;;;;;;;;6.80;99.90;;;;;;5003377;28;19925;-92
2024/01/31 11:22:17;;;;;;;;;;;6.80;99.90;;;;;;5002878;28;19922;-91
2024/01/31 11:24:47;;;;;;;;;;;6.80;99.90;;;;;;4990932;28;19922;-91
2024/01/31 11:27:13;;;;;;;;;;;6.90;99.90;;;;;;5013596;28;19918;-91
2024/01/31 11:29:41;;;;;;;;;;;6.80;99.90;;;;;;5019803;28;19963;-92
2024/01/31 11:32:07;;;;;;;;;;;6.80;99.90;;;;;;5026610;28;19961;-92
2024/01/31 11:34:32;;;;;;;;;;;6.80;99.90;;;;;;5009086;28;19979;-91
2024/01/31 11:36:59;;;;;;;;;;;6.80;99.90;;;;;;5021297;28;20004;-91
2024/01/31 11:39:28;;;;;;;;;;;6.90;99.90;;;;;;5015758;28;20004;-92
2024/01/31 11:41:54;;;;;;;;;;;6.90;99.90;;;;;;5010466;28;19952;-92
2024/01/31 11:44:20;;;;;;;;;;;6.90;99.90;;;;;;4997333;28;19971;-92
2024/01/31 11:46:46;;;;;;;;;;;6.90;99.90;;;;;;5001240;28;19922;-92
2024/01/31 11:49:13;;;;;;;;;;;6.90;99.90;;;;;;5011848;28;19918;-92
2024/01/31 11:51:39;;;;;;;;;;;6.80;99.90;;;;;;5016303;28;19910;-91
2024/01/31 11:54:05;;;;;;;;;;;6.80;99.90;;;;;;5013392;28;19917;-91
2024/01/31 11:56:30;;;;;;;;;;;6.80;99.90;;;;;;5009888;28;20405;-92
2024/01/31 11:58:59;;;;;;;;;;;6.80;99.90;;;;;;5007316;28;19944;-91
2024/01/31 12:01:25;;;;;;;;;;;6.80;99.90;;;;;;5010707;28;20304;-91
2024/01/31 12:03:51;;;;;;;;;;;6.80;99.90;;;;;;5010434;28;21684;-90
2024/01/31 12:06:20;;;;;;;;;;;6.80;99.90;;;;;;4994812;28;19928;-91
2024/01/31 12:08:49;;;;;;;;;;;6.90;99.90;;;;;;4993154;28;20373;-92
2024/01/31 12:11:19;;;;;;;;;;;6.90;99.90;;;;;;5009245;28;20004;-92
2024/01/31 12:13:45;;;;;;;;;;;6.90;99.90;;;;;;5015297;28;19923;-92
2024/01/31 12:16:10;;;;;;;;;;;6.90;99.90;;;;;;5011570;28;20419;-93
2024/01/31 12:18:36;;;;;;;;;;;6.90;99.90;;;;;;5011193;28;19909;-91
2024/01/31 12:21:02;;;;;;;;;;;6.90;99.90;;;;;;5012281;28;20020;-92
2024/01/31 12:23:29;;;;;;;;;;;6.90;99.90;;;;;;5009062;28;19920;-91
2024/01/31 12:25:57;;;;;;;;;;;6.90;99.90;;;;;;4997387;28;19925;-91
2024/01/31 12:28:23;;;;;;;;;;;6.90;99.90;;;;;;5027624;28;19972;-90
2024/01/31 12:30:49;;;;;;;;;;;6.90;99.90;;;;;;5015480;28;19918;-91
2024/01/31 12:33:15;;;;;;;;;;;6.80;99.90;;;;;;5014199;28;19909;-91
2024/01/31 12:35:40;;;;;;;;;;;6.80;99.90;;;;;;5015632;28;20381;-92
2024/01/31 12:38:09;;;;;;;;;;;6.80;99.90;;;;;;5009379;28;19922;-91
2024/01/31 12:40:34;;;;;;;;;;;6.80;99.90;;;;;;5015184;28;19941;-90
2024/01/31 12:43:00;;;;;;;;;;;6.90;99.90;;;;;;5015749;28;19918;-91
2024/01/31 12:45:25;;;;;;;;;;;6.90;99.90;;;;;;5012959;28;19918;-89
2024/01/31 12:47:51;;;;;;;;;;;6.80;99.90;;;;;;5021621;28;19921;-92
2024/01/31 12:50:16;;;;;;;;;;;6.80;99.90;;;;;;5021999;28;19989;-91
2024/01/31 12:52:44;;;;;;;;;;;7.00;99.90;;;;;;5015208;28;19964;-91
2024/01/31 12:55:10;;;;;;;;;;;6.80;99.90;;;;;;5000536;28;19918;-91
2024/01/31 12:57:36;;;;;;;;;;;6.90;99.90;;;;;;5015600;28;20019;-90
2024/01/31 13:00:03;;;;;;;;;;;6.90;99.90;;;;;;5015287;28;19980;-91
2024/01/31 13:02:29;;;;;;;;;;;6.90;99.90;;;;;;5017865;28;19962;-91
2024/01/31 13:04:55;;;;;;;;;;;6.90;99.90;;;;;;5014127;28;19936;-91
2024/01/31 13:07:21;;;;;;;;;;;7.00;99.90;;;;;;5022066;28;19920;-91
2024/01/31 13:09:47;;;;;;;;;;;6.90;99.90;;;;;;5023488;28;19919;-91
2024/01/31 13:12:15;;;;;;;;;;;6.90;99.90;;;;;;5020863;28;19949;-92
2024/01/31 13:14:41;;;;;;;;;;;6.90;99.90;;;;;;5019854;28;19956;-92
2024/01/31 13:17:06;;;;;;;;;;;7.00;99.90;;;;;;5035448;28;19921;-91
2024/01/31 13:19:37;;;;;;;;;;;7.00;99.90;;;;;;5030668;28;19918;-92
2024/01/31 13:22:03;;;;;;;;;;;7.00;99.90;;;;;;5020665;28;19937;-93
2024/01/31 13:24:30;;;;;;;;;;;7.00;99.90;;;;;;5014893;28;19920;-90
2024/01/31 13:26:56;;;;;;;;;;;7.10;99.90;;;;;;5013776;28;19913;-90
2024/01/31 13:29:22;;;;;;;;;;;7.10;99.90;;;;;;5013525;28;19923;-91
2024/01/31 13:31:48;;;;;;;;;;;7.10;99.90;;;;;;5017711;28;19925;-92
2024/01/31 13:34:14;;;;;;;;;;;7.00;99.90;;;;;;5021070;28;19924;-91
2024/01/31 13:36:40;;;;;;;;;;;7.00;99.90;;;;;;5018242;28;19909;-91
2024/01/31 13:39:06;;;;;;;;;;;7.00;99.90;;;;;;5025071;28;20016;-91
2024/01/31 13:41:31;;;;;;;;;;;7.10;99.90;;;;;;5023515;28;19968;-91
2024/01/31 13:43:57;;;;;;;;;;;7.10;99.90;;;;;;5027092;28;20018;-91
2024/01/31 13:46:25;;;;;;;;;;;7.20;99.90;;;;;;5028906;28;19941;-91
2024/01/31 13:48:50;;;;;;;;;;;7.10;99.90;;;;;;5015825;28;19960;-91
2024/01/31 13:51:17;;;;;;;;;;;7.10;99.90;;;;;;5016980;28;19917;-90
2024/01/31 13:53:42;;;;;;;;;;;7.20;99.90;;;;;;5020475;28;19917;-90
2024/01/31 13:56:08;;;;;;;;;;;7.30;99.90;;;;;;5016660;28;19935;-90
2024/01/31 13:58:34;;;;;;;;;;;7.20;99.80;;;;;;5021003;28;20210;-90
2024/01/31 14:00:59;;;;;;;;;;;7.20;99.90;;;;;;5028333;28;19937;-91
2024/01/31 14:03:25;;;;;;;;;;;7.10;99.90;;;;;;5032316;28;20380;-92
2024/01/31 14:05:51;;;;;;;;;;;7.10;99.90;;;;;;5019226;28;19924;-90
2024/01/31 14:08:16;;;;;;;;;;;7.20;99.90;;;;;;5002115;28;19936;-91
2024/01/31 14:10:42;;;;;;;;;;;7.20;99.90;;;;;;5014337;28;19920;-90
2024/01/31 14:13:07;;;;;;;;;;;7.20;99.90;;;;;;5012682;28;19928;-92
2024/01/31 14:15:33;;;;;;;;;;;7.20;99.80;;;;;;5015355;28;19912;-92
2024/01/31 14:18:01;;;;;;;;;;;7.30;99.90;;;;;;4996822;28;19914;-92
2024/01/31 14:20:27;;;;;;;;;;;7.30;99.90;;;;;;5016322;28;20423;-92
2024/01/31 14:22:53;;;;;;;;;;;7.20;99.80;;;;;;5016168;28;19919;-93
2024/01/31 14:25:18;;;;;;;;;;;7.40;99.70;;;;;;5024126;28;19932;-93
2024/01/31 14:27:45;;;;;;;;;;;7.30;99.80;;;;;;5017573;28;19912;-92
2024/01/31 14:30:10;;;;;;;;;;;7.20;99.50;;;;;;5002701;28;19913;-92